INFORMAÇÕES METEOROLÓGICAS
METAR FOR SBMS
ADDS - METARS form results

(2036 UTC 16 June 2019)
Data provider http://aviationweather.gov/metar/data/
 
METAR text: SBMS 162000Z 22003KT 8000 -RA BKN015 BKN090 26/25 Q1014
Conditions at: SBMS (MOSSORO , BR) observed 2000 UTC 16 June 2019
Temperature: 26.0°C (79°F)
Dewpoint: 25.0°C (77°F) [RH = 94%]
Pressure (altimeter): 29.94 inches Hg (1014.0 mb)
Winds: from the SW (220 degrees) at 3 MPH (3 knots; 1.5 m/s)
Visibility: 5 miles ( 8 km)
Ceiling: 1500 feet AGL
Clouds: broken clouds at 1500 feet AGL
broken clouds at 9000 feet AGL
Weather: -RA  (light rain)

 MAPA DO AEROPORTO

 INFORMAÇÕES DA PISTA
Pista 5 Tamanho da pista 6562 ft Largura da pista 98 ft
Elevação da pista 0 ft Ranhura da pista 0 ft Proa da pista 0
Pista 23 Tamanho da pista 6562 ft Largura da pista 98 ft
Elevação da pista 0 ft Ranhura da pista 0 ft Proa da pista 0

 FREQUÊNCIAS DO AEROPORTO
Tipo AFIS Nome MOSSORO RD Frequência 125.9 MHZ

 AUXÍLIOS DE NAVEGAÇÃO PRÓXIMOS AO AEROPORTO
Tipo VOR-DME Nome Mossoro Frequência 112400 KHZ
Tipo NDB Nome Mossoro Frequência 275 KHZ



Powered by Mercosul Lnhas Aereas